Aviation Digital Data Service (ADDS)

Output produced by METARs form (0344 UTC 23 November 2017)
found at http://www.aviationweather.gov/adds/metars/
 
KRAP 222324Z 2300/2324 30009KT P6SM BKN200 
     FM231500 23007KT P6SM BKN200
       
KRBG 222320Z 2300/2324 VRB03KT P6SM -RA SCT020 OVC040 WS020/20040KT 
     FM230800 VRB03KT P6SM -RA OVC020 
     FM232000 19007KT P6SM -RA OVC025
       
KRBL 222328Z 2300/2324 32005KT P6SM BKN250 
     FM230900 VRB04KT P6SM VCSH OVC100 
     FM231100 VRB04KT P6SM -RA OVC050 
     TEMPO 2314/2318 3SM -RA OVC025 
     FM232100 VRB04KT P6SM SCT025 BKN050
       
TAF AMD KRCA 222110Z 2221/2401 32015G25KT 9999 SCT050 BKN150 QNH2993INS 
     TEMPO 2221/2302 32025G38KT 510003 
     BECMG 2301/2302 29009KT 9999 FEW035 QNH2988INS 
     BECMG 2311/2312 23009KT 9999 FEW035 SCT100 QNH2960INS TX23/2319Z TN08/2312Z LAST NO AMDS AFT 2221 NEXT 2703
       
KRDD 222328Z 2300/2324 VRB03KT P6SM BKN250 
     FM230800 VRB03KT P6SM VCSH OVC100 
     FM231000 VRB04KT P6SM -RA OVC050 
     TEMPO 2314/2318 3SM -RA OVC025 
     FM232100 00000KT P6SM SCT025 BKN050
       
KRDG 222321Z 2300/2324 32010G20KT P6SM OVC045 
     FM230200 33008KT P6SM BKN045 
     FM230700 32004KT P6SM SKC
       
KRDM 222341Z 2300/2324 24009G19KT P6SM BKN160 BKN180 WS020/22030KT 
     FM230300 18008KT P6SM BKN070 OVC100 
     TEMPO 2303/2306 P6SM -RA OVC050 
     FM230600 18010KT P6SM BKN080
       
TAF AMD KRDR 230315Z 2303/2408 30009KT 9999 SCT025 BKN035 620352 QNH2987INS 
     BECMG 2307/2308 VRB06KT 9999 FEW070 QNH2985INS 
     BECMG 2315/2316 18009KT 9999 BKN010 OVC020 620101 QNH2946INS 
     BECMG 2402/2403 23012KT 9999 FEW025 BKN200 QNH2931INS TX03/2402Z TNM09/2311Z
       
KRDU 222320Z 2300/2324 04005KT P6SM BKN250
       
KRIC 222323Z 2300/2324 36010KT P6SM SKC 
     FM230400 36006KT P6SM SKC 
     FM231700 27005KT P6SM SCT250
       
KRIL 222320Z 2300/2324 00000KT P6SM SCT070 SCT200
       
TAF KRIV 222003Z 2220/2402 07009KT 9999 SKC QNH3007INS 
     TEMPO 2220/2301 08012G20KT 
     BECMG 2303/2304 VRB06KT 9999 FEW250 QNH3008INS 
     BECMG 2317/2318 09009KT 9999 SCT250 QNH3004INS TX35/2222Z TN11/2314Z
       
KRIW 222321Z 2300/2324 26009KT P6SM SCT100 BKN150 
     FM230200 29012KT P6SM SCT120 BKN200 
     FM231300 26008KT P6SM BKN120 BKN200
       
KRKD 230326Z 2303/2324 01007G17KT P6SM -RA OVC035 
     FM230500 32008KT P6SM BKN040 AMD LTD TO CLD VIS AND WIND
       
KRKS 222321Z 2300/2324 27020G30KT P6SM SCT100 BKN200 
     FM230100 26012G20KT P6SM BKN200 
     FM230800 25009KT P6SM FEW010 BKN200 
     FM231900 26012KT P6SM BKN200
       
KRME 222321Z 2300/2324 28009KT P6SM BKN025 OVC040 
     FM230700 29005KT P6SM BKN040 OVC060 
     FM231900 25006KT P6SM SCT050 BKN100
       
KRNO 222343Z 2300/2324 VRB04KT P6SM SCT120 BKN200 
     FM232100 28007KT P6SM SCT100 BKN180
       
KROA 222320Z 2300/2324 32012KT P6SM SCT250 
     FM230300 VRB04KT P6SM SCT250
       
KROC 230301Z 2303/2324 28008KT P6SM OVC035 
     FM231000 24005KT P6SM BKN040 
     FM231600 22009KT P6SM BKN035 
     FM231900 22012G18KT P6SM BKN035
       
KROG 222325Z 2300/2324 24004KT P6SM FEW250 
     FM231500 20007KT P6SM SKC
       
KROW 222329Z 2300/2324 17008KT P6SM SCT250 
     FM230800 34005KT P6SM SCT250 
     FM231900 VRB06KT P6SM SCT250
       
KRSL 222322Z 2300/2324 19012KT P6SM FEW250 
     FM230600 24007KT P6SM SCT250 
     FM231200 30006KT P6SM FEW250 
     FM232100 24006KT P6SM FEW250
       
KRST 222330Z 2300/2324 19010KT P6SM OVC080 
     FM230500 23007KT P6SM SKC 
     FM231300 29007KT P6SM FEW250
       
KRSW 222330Z 2300/2324 VRB05KT P6SM VCSH BKN045 BKN200 
     FM230200 06005KT P6SM FEW020 SCT040 BKN200 
     FM230900 12005KT 5SM BR SCT025 BKN150 
     FM231400 16008KT P6SM VCSH SCT025 BKN150 
     FM231700 23009KT P6SM VCSH SCT035 BKN100
       
KRUT 230306Z 2303/2324 31009KT P6SM SCT025 OVC040 
     TEMPO 2303/2307 BKN025 
     FM231200 VRB04KT P6SM SCT040 
     FM231700 25005KT P6SM SCT120
       
KRVS 222325Z 2300/2324 VRB04KT P6SM SCT250 
     FM231500 20005KT P6SM SCT250
       
KRWI 222320Z 2300/2324 04005KT P6SM BKN250
       
KRWL 222322Z 2300/2324 24015KT P6SM SCT200 
     FM231600 24018G28KT P6SM SCT200
       
KRYY 222333Z 2300/2324 32008KT P6SM SCT250 
     FM230200 34004KT P6SM SCT250 
     FM230600 00000KT P6SM SCT030 
     FM231000 08003KT P6SM BKN030 
     FM231600 09004KT P6SM FEW035 
     FM231800 08004KT P6SM SCT250